Babson Park, Florida
Current Conditions -  °F | °C
As of 2:47 PM on Tuesday 25 Nov 2014 (Local Time) from KBOW Reporting Station
Broken Clouds Broken Clouds  
Wind Chill: 81°   Ceiling: 2200
Heat Index: 85°   Visibility: 10mi
Dew Point: 73°   Wind: 12mph
Humidity: 79%   Direction: 200°SSW
Pressure: 29.89"   Gusts: NA
Location:  27.83°N, 81.52°W
Report Text: KBOW 251947Z 20010KT 10SM BKN022 27/23 A2989
Loading
Personal Weather Stations






























Interactive Weather Map New forecast layout! Learn more

10-Day Weather Forecast

Advertisements
Track Severe Weather on mobile